Time;durP1;ratioP1;P1;durP2;ratioP2;P2;SDS_P1;SDS_P2;PMS_P1;PMS_P2;Temp;Humidity;BMP_temperature;BMP_pressure;BME280_temperature;BME280_humidity;BME280_pressure;Samples;Min_cycle;Max_cycle;Signal;HPM_P1;HPM_P2
2019/04/01 00:02:02;;;;;;;61;48.6;;;;;;;;;;;;;
2019/04/01 00:04:24;;;;;;;54.2;44.3;;;;;;;;;;;;;
2019/04/01 00:06:49;;;;;;;57;46.5;;;;;;;;;;;;;
2019/04/01 00:09:14;;;;;;;61.6;47.2;;;;;;;;;;;;;
2019/04/01 00:11:39;;;;;;;66.2;51.4;;;;;;;;;;;;;
2019/04/01 00:14:05;;;;;;;62.5;49.4;;;;;;;;;;;;;
2019/04/01 00:16:31;;;;;;;59.1;46.2;;;;;;;;;;;;;
2019/04/01 00:18:56;;;;;;;64.9;50;;;;;;;;;;;;;
2019/04/01 00:21:22;;;;;;;67.8;51.5;;;;;;;;;;;;;
2019/04/01 00:23:47;;;;;;;61.8;47.6;;;;;;;;;;;;;
2019/04/01 00:26:21;;;;;;;70;52.5;;;;;;;;;;;;;
2019/04/01 00:28:45;;;;;;;65.3;51.3;;;;;;;;;;;;;
2019/04/01 00:31:09;;;;;;;57.7;46.3;;;;;;;;;;;;;
2019/04/01 00:33:35;;;;;;;69.1;52.5;;;;;;;;;;;;;
2019/04/01 00:36:01;;;;;;;71.6;51.4;;;;;;;;;;;;;
2019/04/01 00:38:26;;;;;;;68.4;51.6;;;;;;;;;;;;;
2019/04/01 00:40:52;;;;;;;64.6;49.8;;;;;;;;;;;;;
2019/04/01 00:45:44;;;;;;;69.9;52.9;;;;;;;;;;;;;
2019/04/01 00:48:08;;;;;;;66.6;51.4;;;;;;;;;;;;;
2019/04/01 00:50:34;;;;;;;71.6;52.4;;;;;;;;;;;;;
2019/04/01 00:52:59;;;;;;;71.1;52.7;;;;;;;;;;;;;
2019/04/01 00:55:28;;;;;;;68.2;49.6;;;;;;;;;;;;;
2019/04/01 00:57:53;;;;;;;75.9;56.8;;;;;;;;;;;;;
2019/04/01 01:00:18;;;;;;;67.9;50.4;;;;;;;;;;;;;
2019/04/01 01:02:43;;;;;;;79.6;58.1;;;;;;;;;;;;;
2019/04/01 01:05:08;;;;;;;74;52;;;;;;;;;;;;;
2019/04/01 01:07:33;;;;;;;74.9;55.4;;;;;;;;;;;;;
2019/04/01 01:09:58;;;;;;;78.5;57.5;;;;;;;;;;;;;
2019/04/01 01:12:24;;;;;;;77.2;54.8;;;;;;;;;;;;;
2019/04/01 01:14:49;;;;;;;75;54.4;;;;;;;;;;;;;
2019/04/01 01:17:14;;;;;;;76.8;55.3;;;;;;;;;;;;;
2019/04/01 01:19:39;;;;;;;72.7;53.2;;;;;;;;;;;;;
2019/04/01 01:22:04;;;;;;;80.5;55.8;;;;;;;;;;;;;
2019/04/01 01:24:29;;;;;;;80.8;57.9;;;;;;;;;;;;;
2019/04/01 01:26:54;;;;;;;80.3;57.1;;;;;;;;;;;;;
2019/04/01 01:29:20;;;;;;;76.3;53.9;;;;;;;;;;;;;
2019/04/01 01:31:45;;;;;;;84.4;59.2;;;;;;;;;;;;;
2019/04/01 01:34:10;;;;;;;82.1;57.6;;;;;;;;;;;;;
2019/04/01 01:36:35;;;;;;;87.4;60.1;;;;;;;;;;;;;
2019/04/01 01:39:00;;;;;;;84.6;58.7;;;;;;;;;;;;;
2019/04/01 01:41:25;;;;;;;93.8;61.8;;;;;;;;;;;;;
2019/04/01 01:43:50;;;;;;;91.9;63.1;;;;;;;;;;;;;
2019/04/01 01:46:15;;;;;;;95.6;63.5;;;;;;;;;;;;;
2019/04/01 01:48:40;;;;;;;101.2;67.4;;;;;;;;;;;;;
2019/04/01 01:51:05;;;;;;;90;59.7;;;;;;;;;;;;;
2019/04/01 01:53:30;;;;;;;95.6;60.9;;;;;;;;;;;;;
2019/04/01 01:55:56;;;;;;;92.4;60.1;;;;;;;;;;;;;
2019/04/01 01:58:21;;;;;;;94.6;64.3;;;;;;;;;;;;;
2019/04/01 02:00:46;;;;;;;98.6;64.1;;;;;;;;;;;;;
2019/04/01 02:03:12;;;;;;;96.3;62.8;;;;;;;;;;;;;
2019/04/01 02:05:37;;;;;;;98.8;65.4;;;;;;;;;;;;;
2019/04/01 02:08:03;;;;;;;94.4;62.7;;;;;;;;;;;;;
2019/04/01 02:10:30;;;;;;;103.9;66.3;;;;;;;;;;;;;
2019/04/01 02:12:55;;;;;;;94.1;63.7;;;;;;;;;;;;;
2019/04/01 02:15:20;;;;;;;95;62.3;;;;;;;;;;;;;
2019/04/01 02:17:46;;;;;;;100.4;65.2;;;;;;;;;;;;;
2019/04/01 02:20:11;;;;;;;106.6;70.2;;;;;;;;;;;;;
2019/04/01 02:22:36;;;;;;;106.9;69.9;;;;;;;;;;;;;
2019/04/01 02:25:01;;;;;;;104.7;67;;;;;;;;;;;;;
2019/04/01 02:27:28;;;;;;;111.6;70.4;;;;;;;;;;;;;
2019/04/01 02:29:53;;;;;;;94.2;62.6;;;;;;;;;;;;;
2019/04/01 02:32:19;;;;;;;113.2;67.8;;;;;;;;;;;;;
2019/04/01 02:34:44;;;;;;;111.3;71;;;;;;;;;;;;;
2019/04/01 02:37:11;;;;;;;100.4;65.6;;;;;;;;;;;;;
2019/04/01 02:39:36;;;;;;;96.5;62.3;;;;;;;;;;;;;
2019/04/01 02:42:01;;;;;;;117.2;75.2;;;;;;;;;;;;;
2019/04/01 02:44:26;;;;;;;110.3;68.9;;;;;;;;;;;;;
2019/04/01 02:46:52;;;;;;;102.4;65.5;;;;;;;;;;;;;
2019/04/01 02:49:17;;;;;;;121.2;74.1;;;;;;;;;;;;;
2019/04/01 02:51:44;;;;;;;115.1;71.5;;;;;;;;;;;;;
2019/04/01 02:54:09;;;;;;;114.1;70.7;;;;;;;;;;;;;
2019/04/01 02:56:35;;;;;;;120.2;73;;;;;;;;;;;;;
2019/04/01 02:59:00;;;;;;;114.2;70.2;;;;;;;;;;;;;
2019/04/01 03:01:26;;;;;;;102.6;63.8;;;;;;;;;;;;;
2019/04/01 03:03:51;;;;;;;116.3;72.7;;;;;;;;;;;;;
2019/04/01 03:06:17;;;;;;;109.4;68.2;;;;;;;;;;;;;
2019/04/01 03:08:43;;;;;;;111.5;66.5;;;;;;;;;;;;;
2019/04/01 03:11:09;;;;;;;117.7;71.9;;;;;;;;;;;;;
2019/04/01 03:13:34;;;;;;;121.9;74;;;;;;;;;;;;;
2019/04/01 03:16:00;;;;;;;114.5;70.3;;;;;;;;;;;;;
2019/04/01 03:18:25;;;;;;;117.7;74.3;;;;;;;;;;;;;
2019/04/01 03:20:52;;;;;;;121.7;73.8;;;;;;;;;;;;;
2019/04/01 03:23:17;;;;;;;131.7;79.3;;;;;;;;;;;;;
2019/04/01 03:25:42;;;;;;;114.9;70.4;;;;;;;;;;;;;
2019/04/01 03:28:07;;;;;;;126.8;75.8;;;;;;;;;;;;;
2019/04/01 03:30:35;;;;;;;132.5;75.5;;;;;;;;;;;;;
2019/04/01 03:33:00;;;;;;;105.9;66.9;;;;;;;;;;;;;
2019/04/01 03:35:26;;;;;;;100;60.1;;;;;;;;;;;;;
2019/04/01 03:37:51;;;;;;;127.9;74.1;;;;;;;;;;;;;
2019/04/01 03:40:17;;;;;;;124.7;74.1;;;;;;;;;;;;;
2019/04/01 03:42:43;;;;;;;112;68.4;;;;;;;;;;;;;
2019/04/01 03:45:08;;;;;;;120.9;73.4;;;;;;;;;;;;;
2019/04/01 03:47:33;;;;;;;131.2;74.8;;;;;;;;;;;;;
2019/04/01 03:49:59;;;;;;;123.6;71.1;;;;;;;;;;;;;
2019/04/01 03:52:24;;;;;;;132.8;76.8;;;;;;;;;;;;;
2019/04/01 03:54:50;;;;;;;118.5;68.5;;;;;;;;;;;;;
2019/04/01 03:57:15;;;;;;;130.1;74.8;;;;;;;;;;;;;
2019/04/01 03:59:41;;;;;;;136.5;74;;;;;;;;;;;;;
2019/04/01 04:02:30;;;;;;;119.1;70.7;;;;;;;5.14;100;960.5323;;;;
2019/04/01 04:04:55;;;;;;;134.4;77.2;;;;;;;5.2;100;960.5488;;;;
2019/04/01 04:07:20;;;;;;;121.6;69.8;;;;;;;5.13;100;960.5242;;;;
2019/04/01 04:10:06;;;;;;;128.4;74.2;;;;;;;5.14;100;960.5408;;;;
2019/04/01 04:12:48;;;;;;;113.9;68.7;;;;;;;5.13;100;960.4824;;;;
2019/04/01 04:15:40;;;;;;;121.5;71.4;;;;;;;5.11;100;960.5056;;;;
2019/04/01 04:18:02;;;;;;;128.8;74.4;;;;;;;5.01;100;960.5134;;;;
2019/04/01 04:20:27;;;;;;;128;74.8;;;;;;;5.03;100;960.6042;;;;
2019/04/01 04:22:52;;;;;;;116.5;67.2;;;;;;;4.96;100;960.5469;;;;
2019/04/01 04:25:17;;;;;;;128.3;72.4;;;;;;;4.91;100;960.5294;;;;
2019/04/01 04:27:42;;;;;;;110.9;66.3;;;;;;;4.87;100;960.5497;;;;
2019/04/01 04:30:09;;;;;;;136;75.2;;;;;;;4.91;100;960.5673;;;;
2019/04/01 04:32:32;;;;;;;117.9;66.9;;;;;;;4.82;100;960.4992;;;;
2019/04/01 06:40:38;;;;;;;54.4;40.2;;;;;;;9.63;83.50977;960.8155;;;;
2019/04/01 06:43:17;;;;;;;62.6;43;;;;;;;9.87;81.70508;960.7828;;;;
2019/04/01 06:45:55;;;;;;;54.9;40.5;;;;;;;9.68;82.83691;960.8486;;;;
2019/04/01 06:48:38;;;;;;;64;43.8;;;;;;;9.57;83.48633;960.8175;;;;
2019/04/01 06:50:59;;;;;;;59;41.8;;;;;;;9.71;82.70508;960.8792;;;;
2019/04/01 06:53:25;;;;;;;62.9;43.5;;;;;;;9.6;82.84668;960.8264;;;;
2019/04/01 06:55:50;;;;;;;62.2;42.9;;;;;;;9.52;83.16504;960.822;;;;
2019/04/01 06:58:18;;;;;;;61.2;42.5;;;;;;;9.66;82.8916;960.736;;;;
2019/04/01 07:00:41;;;;;;;56.7;42.5;;;;;;;9.74;82.22363;960.8516;;;;
2019/04/01 07:03:08;;;;;;;56.1;41.4;;;;;;;9.58;83.02637;960.7985;;;;
2019/04/01 07:05:33;;;;;;;55.7;41.6;;;;;;;9.57;83.37207;960.8128;;;;
2019/04/01 07:07:58;;;;;;;52.8;39.1;;;;;;;9.95;81.26855;960.7321;;;;
2019/04/01 07:10:24;;;;;;;55.8;41.4;;;;;;;9.86;81.75977;960.8178;;;;
2019/04/01 07:12:49;;;;;;;55;39.9;;;;;;;9.93;81.7959;960.7855;;;;
2019/04/01 07:15:14;;;;;;;60.3;42.8;;;;;;;9.85;81.875;960.7714;;;;
2019/04/01 07:17:42;;;;;;;60.3;41.4;;;;;;;9.92;80.84473;960.8207;;;;
2019/04/01 07:20:04;;;;;;;60.4;42.2;;;;;;;10.01;79.94629;960.7773;;;;
2019/04/01 07:22:29;;;;;;;55.8;41.2;;;;;;;10.09;80.10156;960.7816;;;;
2019/04/01 07:24:54;;;;;;;56.6;41.8;;;;;;;10.22;79.33594;960.8455;;;;
2019/04/01 07:27:19;;;;;;;54.9;40.4;;;;;;;10.42;78.18945;960.8128;;;;
2019/04/01 07:29:44;;;;;;;54.2;39.9;;;;;;;10.56;77.44922;960.9092;;;;
2019/04/01 07:32:12;;;;;;;53.8;41.2;;;;;;;10.58;77.5459;960.8605;;;;
2019/04/01 07:34:36;;;;;;;54.6;40.3;;;;;;;11.09;75.31543;960.7946;;;;
2019/04/01 07:37:02;;;;;;;55.2;40.1;;;;;;;11.57;72.53906;960.7138;;;;
2019/04/01 07:39:27;;;;;;;51.4;40.1;;;;;;;11.71;71.64355;960.8613;;;;
2019/04/01 07:41:52;;;;;;;52.8;39.6;;;;;;;11.7;72.02441;960.769;;;;
2019/04/01 07:44:17;;;;;;;47.4;36.5;;;;;;;11.87;71.05371;960.7889;;;;
2019/04/01 07:46:42;;;;;;;49;38;;;;;;;12.34;68.97559;960.8395;;;;
2019/04/01 07:49:08;;;;;;;50.1;37.5;;;;;;;12.76;67.35059;960.747;;;;
2019/04/01 07:51:37;;;;;;;47.9;36.7;;;;;;;13.12;65.4248;960.7017;;;;
2019/04/01 07:54:02;;;;;;;48.6;38;;;;;;;13.49;63.80957;960.8275;;;;
2019/04/01 07:56:27;;;;;;;49.6;38.9;;;;;;;12.91;66.01074;960.7086;;;;
2019/04/01 07:58:52;;;;;;;50.1;38.2;;;;;;;12.9;65.64648;960.7438;;;;
2019/04/01 08:01:17;;;;;;;49.8;37.7;;;;;;;13.2;64.44336;960.702;;;;
2019/04/01 08:03:46;;;;;;;43.8;36.9;;;;;;;13.13;65.02734;960.6496;;;;
2019/04/01 08:06:11;;;;;;;49.8;39.2;;;;;;;13.36;63.94238;960.6703;;;;
2019/04/01 08:08:36;;;;;;;49.4;37.7;;;;;;;13.34;63.57715;960.7067;;;;
2019/04/01 08:11:04;;;;;;;45;37;;;;;;;13.72;62.61523;960.6465;;;;
2019/04/01 08:13:27;;;;;;;42.7;34.3;;;;;;;14.34;59.96777;960.6464;;;;
2019/04/01 08:15:56;;;;;;;45;37.3;;;;;;;14.01;60.7627;960.7109;;;;
2019/04/01 08:18:22;;;;;;;46.2;36;;;;;;;14.21;60.47559;960.6188;;;;
2019/04/01 08:20:46;;;;;;;45.8;36.2;;;;;;;14.43;58.97266;960.5684;;;;
2019/04/01 08:23:11;;;;;;;46.8;37.3;;;;;;;14.24;59.93066;960.6241;;;;
2019/04/01 08:25:37;;;;;;;45.9;35.6;;;;;;;14.54;58.54297;960.6192;;;;
2019/04/01 08:28:04;;;;;;;45;36.5;;;;;;;13.89;60.8877;960.6696;;;;
2019/04/01 08:30:29;;;;;;;45.7;37.1;;;;;;;14.06;60.62988;960.6238;;;;
2019/04/01 08:32:54;;;;;;;41.8;33.6;;;;;;;14.65;58.55762;960.6145;;;;
2019/04/01 08:35:21;;;;;;;41.7;34.1;;;;;;;15.75;54.83105;960.6736;;;;
2019/04/01 08:37:46;;;;;;;42.9;35.2;;;;;;;15.18;55.9209;960.6577;;;;
2019/04/01 08:40:11;;;;;;;43.7;36.1;;;;;;;13.98;60.1748;960.7441;;;;
2019/04/01 08:42:38;;;;;;;43.7;36.3;;;;;;;13.29;62.75195;960.7214;;;;
2019/04/01 08:45:03;;;;;;;43.5;35.7;;;;;;;13.97;60.87402;960.7676;;;;
2019/04/01 08:47:28;;;;;;;44.5;36.6;;;;;;;13.85;60.72949;960.8025;;;;
2019/04/01 08:49:53;;;;;;;44.9;35.3;;;;;;;14.05;60.78125;960.7836;;;;
2019/04/01 08:52:19;;;;;;;43.9;35.3;;;;;;;14.12;60.2998;960.6808;;;;
2019/04/01 08:54:44;;;;;;;42.6;34.4;;;;;;;14.91;57.30469;960.7936;;;;
2019/04/01 08:57:10;;;;;;;42.5;34.3;;;;;;;15.22;56.53613;960.7254;;;;
2019/04/01 08:59:35;;;;;;;41.7;34.8;;;;;;;15.54;55.31055;960.7681;;;;
2019/04/01 09:02:00;;;;;;;40.5;33.4;;;;;;;16.01;53.46582;960.6328;;;;
2019/04/01 09:04:25;;;;;;;37.6;32.6;;;;;;;16.42;52.16406;960.7192;;;;
2019/04/01 09:06:50;;;;;;;40.5;34.8;;;;;;;15.93;53.2334;960.7078;;;;
2019/04/01 09:09:18;;;;;;;40.5;34.3;;;;;;;15.18;55.2998;960.6102;;;;
2019/04/01 09:11:40;;;;;;;40.5;34.9;;;;;;;14.83;56.95313;960.6622;;;;
2019/04/01 09:14:08;;;;;;;39.6;35.4;;;;;;;14.41;58.67871;960.6166;;;;
2019/04/01 09:16:33;;;;;;;43.3;36.2;;;;;;;14.19;59.29199;960.6303;;;;
2019/04/01 09:19:00;;;;;;;38.5;33.5;;;;;;;14.38;58.81445;960.5433;;;;
2019/04/01 09:21:35;;;;;;;38.6;33;;;;;;;15.17;56.40039;960.5607;;;;
2019/04/01 09:24:02;;;;;;;38.7;32.7;;;;;;;15.54;54.44238;960.5748;;;;
2019/04/01 09:26:26;;;;;;;40.3;34;;;;;;;15.68;54.18848;960.6353;;;;
2019/04/01 09:28:51;;;;;;;39.2;34.3;;;;;;;15.83;53.69043;960.5266;;;;
2019/04/01 09:31:19;;;;;;;35.1;31.3;;;;;;;16.29;52.0791;960.5114;;;;
2019/04/01 09:33:47;;;;;;;39.7;33;;;;;;;16.27;51.98242;960.4974;;;;
2019/04/01 09:36:15;;;;;;;41;33.9;;;;;;;16.2;51.72754;960.51;;;;
2019/04/01 09:38:40;;;;;;;36.7;32.3;;;;;;;16.45;51.27539;960.4695;;;;
2019/04/01 09:41:06;;;;;;;38.1;32.5;;;;;;;16.64;51.23828;960.5103;;;;
2019/04/01 09:43:33;;;;;;;38.7;32.3;;;;;;;16.26;52.25195;960.4983;;;;
2019/04/01 09:45:58;;;;;;;39.3;34.2;;;;;;;16.61;51.12891;960.4673;;;;
2019/04/01 09:48:26;;;;;;;41.2;34.8;;;;;;;16.19;52.24316;960.4037;;;;
2019/04/01 09:50:51;;;;;;;40.2;33.4;;;;;;;16.5;51.39746;960.3823;;;;
2019/04/01 09:53:16;;;;;;;37.7;33.6;;;;;;;16.71;51.33984;960.3298;;;;
2019/04/01 09:55:41;;;;;;;37.8;33.7;;;;;;;17.17;49.66309;960.3734;;;;
2019/04/01 09:58:09;;;;;;;41.2;34.9;;;;;;;17.51;48.9707;960.3591;;;;
2019/04/01 10:00:36;;;;;;;33;29.4;;;;;;;17.47;49.49707;960.3299;;;;
2019/04/01 10:03:05;;;;;;;37.2;33.2;;;;;;;18.02;47.26855;960.2231;;;;
2019/04/01 10:05:35;;;;;;;41.1;35.5;;;;;;;17.25;48.94043;960.2859;;;;
2019/04/01 10:08:01;;;;;;;38.9;34.8;;;;;;;17.12;49.57422;960.2294;;;;
2019/04/01 10:10:27;;;;;;;36.8;32.9;;;;;;;17.07;50.16992;960.1795;;;;
2019/04/01 10:12:52;;;;;;;34;29.5;;;;;;;18.19;47.11035;960.2344;;;;
2019/04/01 10:15:21;;;;;;;36.2;31.2;;;;;;;17.85;48.13574;960.3309;;;;
2019/04/01 10:17:43;;;;;;;37.9;33.9;;;;;;;16.8;50.52734;960.197;;;;
2019/04/01 10:20:11;;;;;;;39.1;34.9;;;;;;;16.55;51.43848;960.2946;;;;
2019/04/01 10:22:37;;;;;;;42.1;34.6;;;;;;;15.96;53.4707;960.2269;;;;
2019/04/01 10:25:07;;;;;;;40;34.8;;;;;;;16.02;53.31445;960.3613;;;;
2019/04/01 10:27:37;;;;;;;39.9;35.1;;;;;;;15.96;53.84766;960.2349;;;;
2019/04/01 10:29:59;;;;;;;41.9;35.6;;;;;;;16.09;53.42871;960.3656;;;;
2019/04/01 10:32:33;;;;;;;38.9;34.3;;;;;;;15.44;55.82422;960.2272;;;;
2019/04/01 10:35:01;;;;;;;39.5;35.3;;;;;;;15.83;54.46582;960.1529;;;;
2019/04/01 10:37:33;;;;;;;40.7;36.1;;;;;;;15.18;56.72949;960.1387;;;;
2019/04/01 10:39:52;;;;;;;40.5;35.8;;;;;;;15.77;54.64648;960.0781;;;;
2019/04/01 10:42:17;;;;;;;40.3;34.1;;;;;;;15.63;55.15625;960.1526;;;;
2019/04/01 10:44:43;;;;;;;38.5;34;;;;;;;16.22;52.92773;960.0527;;;;
2019/04/01 10:47:15;;;;;;;43.9;36.5;;;;;;;15.03;56.90918;960.1228;;;;
2019/04/01 10:49:40;;;;;;;42.4;35.8;;;;;;;14.93;57.9502;960.101;;;;
2019/04/01 10:52:05;;;;;;;38.8;34.3;;;;;;;15.6;55.35254;960.0017;;;;
2019/04/01 10:54:33;;;;;;;40.1;35.7;;;;;;;15.08;56.35254;959.9963;;;;
2019/04/01 10:56:58;;;;;;;39.2;34.6;;;;;;;15.03;56.21777;960.0801;;;;
2019/04/01 10:59:31;;;;;;;40.4;33.8;;;;;;;15.6;54.97754;960.091;;;;
2019/04/01 11:01:58;;;;;;;44.8;35;;;;;;;16.22;52.96289;960.0051;;;;
2019/04/01 11:04:24;;;;;;;38.3;33.6;;;;;;;16.57;50.9707;959.9522;;;;
2019/04/01 11:06:49;;;;;;;36.5;32.5;;;;;;;16.62;50.03613;960.0576;;;;
2019/04/01 11:09:14;;;;;;;38.6;33.9;;;;;;;16.19;52.3252;959.9612;;;;
2019/04/01 11:11:40;;;;;;;37.1;33;;;;;;;16.2;51.52734;959.9;;;;
2019/04/01 11:14:09;;;;;;;39.2;33.3;;;;;;;16.79;49.90234;959.9238;;;;
2019/04/01 11:16:34;;;;;;;39.7;32.6;;;;;;;16.84;49.88477;959.8089;;;;
2019/04/01 11:18:59;;;;;;;37.7;33.6;;;;;;;17.08;49.71191;959.7732;;;;
2019/04/01 11:21:30;;;;;;;38.8;34.3;;;;;;;17.14;48.56445;959.8906;;;;
2019/04/01 11:23:55;;;;;;;37.2;32.6;;;;;;;17.05;49.625;959.7524;;;;
2019/04/01 11:26:20;;;;;;;36.3;32.3;;;;;;;16.59;50.33887;959.8589;;;;
2019/04/01 11:28:45;;;;;;;40.4;34.7;;;;;;;16.45;50.85156;959.7222;;;;
2019/04/01 11:31:11;;;;;;;38.2;34.1;;;;;;;16.43;50.86133;959.7283;;;;
2019/04/01 11:33:39;;;;;;;38.7;34.5;;;;;;;16.39;51.58496;959.6696;;;;
2019/04/01 11:36:05;;;;;;;39;32.9;;;;;;;17.05;49.64844;959.679;;;;
2019/04/01 11:38:31;;;;;;;34.7;30.9;;;;;;;17.86;48.00586;959.5761;;;;
2019/04/01 11:40:56;;;;;;;37.1;31.9;;;;;;;17.48;48.03516;959.7901;;;;
2019/04/01 11:43:21;;;;;;;34.6;31;;;;;;;17.49;48.41406;959.6551;;;;
2019/04/01 11:45:52;;;;;;;37.7;33.7;;;;;;;17.54;48.01953;959.6145;;;;
2019/04/01 11:48:20;;;;;;;36.2;32.4;;;;;;;17.31;48.54688;959.5549;;;;
2019/04/01 11:50:46;;;;;;;35.9;32;;;;;;;17.33;48.18457;959.4913;;;;
2019/04/01 11:53:14;;;;;;;34.6;30.9;;;;;;;17.5;47.53125;959.5286;;;;
2019/04/01 11:55:41;;;;;;;32.4;29.1;;;;;;;17.65;46.63867;959.4581;;;;
2019/04/01 11:58:08;;;;;;;41.2;34;;;;;;;17.51;47.61523;959.4763;;;;
2019/04/01 12:00:30;;;;;;;38.4;34.5;;;;;;;17;49.32617;959.4098;;;;
2019/04/01 12:02:56;;;;;;;38;34;;;;;;;16.97;49.74609;959.4305;;;;
2019/04/01 12:05:23;;;;;;;37.6;33.6;;;;;;;16.74;51.03711;959.3578;;;;
2019/04/01 12:07:51;;;;;;;39.2;35;;;;;;;16.42;51.36426;959.3778;;;;
2019/04/01 12:10:16;;;;;;;38.8;34.6;;;;;;;16.66;50.95703;959.2695;;;;
2019/04/01 12:12:41;;;;;;;37.2;33.2;;;;;;;16.96;49.98047;959.2777;;;;
2019/04/01 12:15:07;;;;;;;36.5;32.7;;;;;;;17.1;49.51367;959.3016;;;;
2019/04/01 12:17:32;;;;;;;37.9;33.9;;;;;;;16.59;50.45605;959.192;;;;
2019/04/01 12:20:00;;;;;;;35.8;32.1;;;;;;;16.91;49.8457;959.245;;;;
2019/04/01 12:22:25;;;;;;;36.7;33;;;;;;;17.21;49.37207;959.1842;;;;
2019/04/01 12:24:52;;;;;;;37.5;33.5;;;;;;;17.19;49.58203;959.1138;;;;
2019/04/01 12:27:39;;;;;;;36.4;32.7;;;;;;;17.95;47.69824;959.0725;;;;
2019/04/01 12:30:04;;;;;;;37.8;33.6;;;;;;;17.61;48.06152;959.1184;;;;
2019/04/01 12:32:29;;;;;;;40.2;35;;;;;;;16.59;50.87988;959.0164;;;;
2019/04/01 12:34:58;;;;;;;38.3;34.5;;;;;;;16.87;50.77051;958.954;;;;
2019/04/01 12:37:25;;;;;;;38.9;34.6;;;;;;;16.3;52.38477;958.9023;;;;
2019/04/01 12:39:53;;;;;;;38.5;34.4;;;;;;;16.27;51.87598;958.9718;;;;
2019/04/01 12:42:18;;;;;;;37.1;32.4;;;;;;;16.15;50.74609;959.1074;;;;
2019/04/01 12:44:44;;;;;;;36.5;32.6;;;;;;;16.03;52.03613;958.959;;;;
2019/04/01 12:47:08;;;;;;;36.7;32.8;;;;;;;16.07;51.93555;958.8759;;;;
2019/04/01 12:49:33;;;;;;;33.7;30.1;;;;;;;16.28;51.95996;958.9222;;;;
2019/04/01 12:52:05;;;;;;;37.3;33.3;;;;;;;16.31;52.16309;958.9103;;;;
2019/04/01 12:54:32;;;;;;;36.4;32.6;;;;;;;16.43;52.40137;958.8173;;;;
2019/04/01 12:56:55;;;;;;;40.1;35.8;;;;;;;16.41;52.7627;958.743;;;;
2019/04/01 12:59:20;;;;;;;39.2;35;;;;;;;16.44;52.80078;958.7263;;;;
2019/04/01 13:01:45;;;;;;;39.2;34.9;;;;;;;16.46;52.81543;958.7748;;;;
2019/04/01 13:04:10;;;;;;;40.1;35.1;;;;;;;15.74;54.02051;958.7856;;;;
2019/04/01 13:06:36;;;;;;;38.1;34;;;;;;;15.55;54.60742;958.8264;;;;
2019/04/01 13:09:01;;;;;;;38.1;34;;;;;;;15.59;53.9668;958.7145;;;;
2019/04/01 13:11:26;;;;;;;40.4;36;;;;;;;15.16;55.33105;958.6613;;;;
2019/04/01 13:13:51;;;;;;;37;32.4;;;;;;;15.21;54.9043;958.6717;;;;
2019/04/01 13:16:16;;;;;;;40.6;36;;;;;;;15.18;55.85059;958.6415;;;;
2019/04/01 13:18:44;;;;;;;40.4;35.2;;;;;;;14.83;56.00488;958.6799;;;;
2019/04/01 13:21:19;;;;;;;40.6;34.7;;;;;;;14.65;57.25781;958.5864;;;;
2019/04/01 13:23:44;;;;;;;44.2;33.8;;;;;;;14.98;55.42676;958.5712;;;;
2019/04/01 13:26:12;;;;;;;34.9;30;;;;;;;15.37;54.23242;958.4755;;;;
2019/04/01 13:28:35;;;;;;;38.2;34;;;;;;;15.11;55.62012;958.4433;;;;
2019/04/01 13:31:00;;;;;;;41.9;35.1;;;;;;;15.15;55.57715;958.5672;;;;
2019/04/01 13:33:25;;;;;;;38.9;34.7;;;;;;;15.09;55.33594;958.4631;;;;
2019/04/01 13:35:50;;;;;;;40.5;35.1;;;;;;;15.31;55.21094;958.4314;;;;
2019/04/01 13:38:15;;;;;;;43.6;36.4;;;;;;;15.14;56.5127;958.4534;;;;
2019/04/01 13:40:41;;;;;;;41;35.9;;;;;;;15.09;56.68262;958.4333;;;;
2019/04/01 13:43:21;;;;;;;39.6;35.1;;;;;;;15.1;57.00098;958.3718;;;;
2019/04/01 13:45:44;;;;;;;41.3;35.4;;;;;;;15.34;56.50391;958.3295;;;;
2019/04/01 13:48:10;;;;;;;38.9;34.1;;;;;;;15.75;55.14844;958.2692;;;;
2019/04/01 13:50:35;;;;;;;39;34.7;;;;;;;15.71;54.80273;958.3731;;;;
2019/04/01 13:53:01;;;;;;;41.7;35.1;;;;;;;15.27;55.70898;958.3292;;;;
2019/04/01 13:55:29;;;;;;;41.5;35.5;;;;;;;14.78;57.39258;958.3261;;;;
2019/04/01 13:57:51;;;;;;;39.8;34.3;;;;;;;15.12;56.06641;958.2017;;;;
2019/04/01 14:00:17;;;;;;;40;34.6;;;;;;;14.98;57.13672;958.1772;;;;
2019/04/01 14:02:45;;;;;;;38.6;34.4;;;;;;;14.93;57.21191;958.248;;;;
2019/04/01 14:05:14;;;;;;;41.5;35;;;;;;;15.04;56.85254;958.2162;;;;
2019/04/01 14:07:37;;;;;;;41;35.9;;;;;;;15.19;56.8125;958.0566;;;;
2019/04/01 14:10:03;;;;;;;43.4;36.1;;;;;;;15.28;56.12207;957.9849;;;;
2019/04/01 14:12:32;;;;;;;37.7;33.1;;;;;;;15.35;55.46289;958.0615;;;;
2019/04/01 14:14:57;;;;;;;40;34;;;;;;;15.19;56.00391;957.9576;;;;
2019/04/01 14:17:24;;;;;;;37.1;32.1;;;;;;;15.32;55.68066;957.9107;;;;
2019/04/01 14:19:50;;;;;;;39;33.9;;;;;;;15.18;56.22559;957.9417;;;;
2019/04/01 14:22:15;;;;;;;40.9;35.7;;;;;;;15.32;55.90234;957.8858;;;;
2019/04/01 14:24:40;;;;;;;40.8;34.5;;;;;;;15.39;55.04492;958.0526;;;;
2019/04/01 14:27:05;;;;;;;37.1;32.1;;;;;;;15.39;55.05664;957.9407;;;;
2019/04/01 14:29:30;;;;;;;37.4;32.6;;;;;;;15.36;54.63086;957.9058;;;;
2019/04/01 14:31:56;;;;;;;40.5;33.7;;;;;;;15.35;55.02832;957.9327;;;;
2019/04/01 14:34:21;;;;;;;37.1;33;;;;;;;15.29;55.24219;957.8895;;;;
2019/04/01 14:36:46;;;;;;;38.2;33.3;;;;;;;15.36;55.28809;957.8455;;;;
2019/04/01 14:39:11;;;;;;;38.2;33.4;;;;;;;15.38;55.81641;957.882;;;;
2019/04/01 14:41:36;;;;;;;44;35.2;;;;;;;15.47;55.91113;957.7681;;;;
2019/04/01 14:44:01;;;;;;;38.7;34.3;;;;;;;15.44;55.89551;957.8705;;;;
2019/04/01 14:46:26;;;;;;;38;33.8;;;;;;;15.18;56.2373;957.8475;;;;
2019/04/01 14:48:55;;;;;;;33.4;29.8;;;;;;;15.35;55.48535;957.8217;;;;
2019/04/01 14:51:20;;;;;;;36.4;32.5;;;;;;;14.79;56.0459;957.8831;;;;
2019/04/01 14:53:50;;;;;;;37.1;31.9;;;;;;;14.66;56.74316;957.7714;;;;
2019/04/01 14:56:13;;;;;;;38.6;33;;;;;;;14.69;56.92383;957.8269;;;;
2019/04/01 14:58:35;;;;;;;33.7;30;;;;;;;14.84;56.68555;957.7399;;;;
2019/04/01 15:01:00;;;;;;;36.1;32.3;;;;;;;15.01;55.64063;957.7449;;;;
2019/04/01 15:03:26;;;;;;;36.8;30.9;;;;;;;15.23;55.44531;957.7428;;;;
2019/04/01 15:05:50;;;;;;;39.2;33.3;;;;;;;15.03;56.40625;957.7626;;;;
2019/04/01 15:08:19;;;;;;;33.2;29.5;;;;;;;15.17;56.17773;957.6078;;;;
2019/04/01 15:10:44;;;;;;;40.1;33.5;;;;;;;15.09;56.41309;957.6016;;;;
2019/04/01 15:13:09;;;;;;;36.5;32.1;;;;;;;15.28;56.04004;957.6541;;;;
2019/04/01 15:15:34;;;;;;;37.8;32.1;;;;;;;15.33;56.01172;957.5402;;;;
2019/04/01 15:18:00;;;;;;;40.2;32.9;;;;;;;15.23;56.40723;957.6398;;;;
2019/04/01 15:20:27;;;;;;;37.7;32.8;;;;;;;15.23;56.51367;957.5667;;;;
2019/04/01 15:22:52;;;;;;;40;34.2;;;;;;;14.99;57.48926;957.6746;;;;
2019/04/01 15:25:20;;;;;;;36.7;32.6;;;;;;;14.94;57.37793;957.6582;;;;
2019/04/01 15:27:49;;;;;;;36.6;32.6;;;;;;;14.8;57.73438;957.5952;;;;
2019/04/01 15:30:14;;;;;;;39.3;33.9;;;;;;;14.79;57.75684;957.6475;;;;
2019/04/01 15:32:40;;;;;;;36.8;32.9;;;;;;;14.83;57.78418;957.639;;;;
2019/04/01 15:35:08;;;;;;;39.6;34.9;;;;;;;14.7;58.48242;957.7103;;;;
2019/04/01 15:37:39;;;;;;;37.6;33.5;;;;;;;14.88;58.0498;957.5292;;;;
2019/04/01 15:40:06;;;;;;;40.8;34.7;;;;;;;14.68;58.58398;957.6231;;;;
2019/04/01 15:42:38;;;;;;;36.5;32.1;;;;;;;14.8;58.33203;957.5527;;;;
2019/04/01 15:45:20;;;;;;;35;29.8;;;;;;;14.82;57.78418;957.5192;;;;
2019/04/01 15:47:44;;;;;;;38.9;32.4;;;;;;;14.75;58.38379;957.4683;;;;
2019/04/01 15:50:16;;;;;;;39;33.4;;;;;;;14.72;58.33301;957.4937;;;;
2019/04/01 15:52:40;;;;;;;37.9;31.7;;;;;;;14.82;57.75977;957.4983;;;;
2019/04/01 15:55:05;;;;;;;35.9;31;;;;;;;14.88;57.24219;957.4432;;;;
2019/04/01 15:57:32;;;;;;;39;31.5;;;;;;;14.7;57.15918;957.4096;;;;
2019/04/01 16:00:03;;;;;;;37;31.5;;;;;;;14.78;56.98242;957.4386;;;;
2019/04/01 16:02:25;;;;;;;35.6;31.5;;;;;;;14.64;57.18652;957.4824;;;;
2019/04/01 16:04:51;;;;;;;34.5;29.9;;;;;;;14.64;57.4082;957.345;;;;
2019/04/01 16:07:17;;;;;;;35.4;29.7;;;;;;;14.58;57.30664;957.4383;;;;
2019/04/01 16:09:41;;;;;;;32.7;29.2;;;;;;;14.62;57.39453;957.3467;;;;
2019/04/01 16:12:09;;;;;;;33.8;28.9;;;;;;;14.66;56.94336;957.3462;;;;
2019/04/01 16:14:34;;;;;;;34.3;28.9;;;;;;;14.57;57.07129;957.3792;;;;
2019/04/01 16:17:03;;;;;;;29.4;25.9;;;;;;;14.63;57.125;957.325;;;;
2019/04/01 16:19:28;;;;;;;30.8;26.9;;;;;;;14.63;57.19629;957.2687;;;;
2019/04/01 16:21:56;;;;;;;36.9;31;;;;;;;14.46;58.32129;957.2981;;;;
2019/04/01 16:24:22;;;;;;;36.7;31.1;;;;;;;14.43;58.64551;957.2941;;;;
2019/04/01 16:26:51;;;;;;;37.4;32.3;;;;;;;14.37;58.89551;957.262;;;;
2019/04/01 16:29:16;;;;;;;35.8;30;;;;;;;14.39;59.11914;957.2858;;;;
2019/04/01 16:31:41;;;;;;;36.4;31.9;;;;;;;14.35;59.27832;957.2865;;;;
2019/04/01 16:34:07;;;;;;;36.4;32.4;;;;;;;14.34;59.30078;957.2913;;;;
2019/04/01 16:36:32;;;;;;;38.5;32.6;;;;;;;14.33;59.62598;957.2894;;;;
2019/04/01 16:38:57;;;;;;;37.8;33.7;;;;;;;14.23;60.02246;957.2922;;;;
2019/04/01 16:41:24;;;;;;;34.9;30.4;;;;;;;14.18;60.16797;957.2552;;;;
2019/04/01 16:43:49;;;;;;;36.7;32.2;;;;;;;14.15;60.46582;957.2472;;;;
2019/04/01 16:46:14;;;;;;;37.7;32.3;;;;;;;14.13;60.51172;957.2491;;;;
2019/04/01 16:48:45;;;;;;;37.3;32;;;;;;;14.14;60.31348;957.2311;;;;
2019/04/01 16:51:09;;;;;;;35.5;31.7;;;;;;;14.09;60.83301;957.2881;;;;
2019/04/01 16:53:35;;;;;;;37.7;32.7;;;;;;;14.01;60.6582;957.2598;;;;
2019/04/01 16:56:00;;;;;;;36.4;31.2;;;;;;;13.93;60.76367;957.2008;;;;
2019/04/01 16:58:27;;;;;;;37.1;30.9;;;;;;;13.84;61.28906;957.2078;;;;
2019/04/01 17:00:52;;;;;;;39.5;31;;;;;;;13.75;61.3584;957.2438;;;;
2019/04/01 17:03:19;;;;;;;37.2;31.7;;;;;;;13.71;61.55176;957.2236;;;;
2019/04/01 17:05:49;;;;;;;36.8;31.3;;;;;;;13.65;61.89355;957.2772;;;;
2019/04/01 17:08:14;;;;;;;33.4;28.9;;;;;;;13.56;62.3584;957.2805;;;;
2019/04/01 17:10:43;;;;;;;33.6;28.8;;;;;;;13.45;62.78711;957.2722;;;;
2019/04/01 17:13:06;;;;;;;35.3;29.8;;;;;;;13.42;62.93457;957.28;;;;
2019/04/01 17:15:31;;;;;;;30;26.5;;;;;;;13.27;63.57813;957.2802;;;;
2019/04/01 17:18:03;;;;;;;34.9;29.3;;;;;;;13.22;63.90918;957.325;;;;